Estación meteorológica de Montseny - Mas Joan (Vallès Oriental, P.N.del Montseny)

Consulta los datos en tiempo real de la estación meteorológica de Montseny - Mas Joan





Hora UTC 10:05
Temperatura 26.1 ºC
Humedad 56.9 %
Pluja 0.0 mm
Velocidad viento 7.1 km/h
Dirección viento SSE
Radiación solar 879.0 W/m²

Datos diarios 2026-09-01



Hora UTC (invierno +1h; verano +2h)
Temperatura (ºC) Humedad (%) Velocidad viento (km/h) Precipitación (mm) Radiación solar (W/m²)
Hora UTC Aire Humedad Vel. Dir. Vel. Max Dir. Intent. máx 5 min. Rad. Sol.
00:05 18.7 87.6 2.7 WSW 3.4 WSW 0.0 0.0
00:10 18.7 88.0 2.7 WSW 3.6 WSW 0.0 0.0
00:15 18.6 88.3 2.2 SW 3.4 WSW 0.0 0.0
00:20 18.5 88.4 1.8 SW 3.7 SSW 0.0 0.0
00:25 18.5 88.5 1.7 WSW 2.8 W 0.0 0.0
00:30 18.5 88.1 1.8 WSW 3.0 WSW 0.0 0.0
00:35 18.4 87.8 1.4 SW 2.4 WSW 0.0 0.0
00:40 18.4 88.1 1.3 WSW 2.2 W 0.0 0.0
00:45 18.3 87.8 1.6 WSW 3.3 W 0.0 0.0
00:50 18.3 87.6 2.3 WSW 3.5 W 0.0 0.0
00:55 18.3 88.1 1.5 SSW 4.6 SSE 0.0 0.0
01:00 18.3 88.3 1.6 WSW 3.4 SW 0.0 0.0
01:05 18.3 88.4 1.7 SSW 3.9 SE 0.0 0.0
01:10 18.2 88.6 1.1 WSW 1.9 SSW 0.0 0.0
01:15 18.2 88.9 1.9 W 3.2 WNW 0.0 0.0
01:20 18.3 89.5 1.8 WSW 2.6 W 0.0 0.0
01:25 18.3 89.8 2.9 W 3.5 W 0.0 0.0
01:30 18.4 90.0 3.6 WNW 4.8 WNW 0.0 0.0
01:35 18.4 90.2 2.7 W 3.7 W 0.0 0.0
01:40 18.5 90.2 2.6 W 3.5 WNW 0.0 0.1
01:45 18.5 89.8 2.3 W 4.5 WNW 0.0 0.0
01:50 18.5 89.8 2.6 W 4.8 WNW 0.0 0.0
01:55 18.5 89.7 2.0 WSW 3.2 WSW 0.0 0.0
02:00 18.6 89.8 1.9 W 2.6 WSW 0.0 0.2
02:05 18.6 89.4 1.9 WNW 3.7 W 0.0 0.1
02:10 18.6 88.9 1.9 WSW 2.5 WSW 0.0 0.0
02:15 18.6 88.8 2.6 W 5.1 WNW 0.0 0.0
02:20 18.6 88.7 2.1 WSW 4.0 WNW 0.0 0.0
02:25 18.6 88.9 3.5 W 5.9 WNW 0.0 0.0
02:30 18.6 88.9 3.7 WNW 6.2 WNW 0.0 0.0
02:35 18.6 88.8 3.2 W 6.8 WNW 0.0 0.0
02:40 18.6 88.8 4.3 WNW 6.3 WNW 0.0 0.0
02:45 18.6 88.7 3.6 W 6.3 WNW 0.0 0.0
02:50 18.6 88.3 3.2 WNW 4.9 WNW 0.0 0.0
02:55 18.5 88.3 3.4 WNW 5.8 WNW 0.0 0.0
03:00 18.5 88.4 3.8 WNW 5.9 W 0.0 0.0
03:05 18.6 88.6 4.1 WNW 6.1 WNW 0.0 0.0
03:10 18.6 88.1 3.5 WNW 6.6 W 0.0 0.0
03:15 18.4 87.9 2.7 WNW 4.9 NW 0.0 0.0
03:20 18.6 87.8 4.1 WNW 7.5 NW 0.0 0.0
03:25 18.7 86.3 3.7 WNW 6.3 W 0.0 0.0
03:30 18.7 86.2 3.7 W 6.3 WSW 0.0 0.0
03:35 18.6 86.3 2.8 WSW 5.1 WNW 0.0 0.0
03:40 18.4 87.3 2.7 WSW 4.5 SW 0.0 0.0
03:45 18.4 87.7 2.7 WSW 5.9 WNW 0.0 0.0
03:50 18.3 87.5 2.3 WSW 3.7 SW 0.0 0.0
03:55 18.1 87.9 2.0 SW 3.8 SW 0.0 0.0
04:00 18.0 88.6 2.8 SSW 5.1 SSW 0.0 0.0
04:05 18.0 89.0 2.7 SSW 4.9 SSW 0.0 0.0
04:10 18.0 89.5 2.2 SW 3.0 SW 0.0 0.0
04:15 18.1 89.3 2.0 WSW 3.5 W 0.0 0.0
04:20 17.9 88.1 2.4 W 3.5 WSW 0.0 0.0
04:25 17.9 88.3 2.9 WSW 3.8 WSW 0.0 0.0
04:30 17.9 88.5 3.1 WSW 3.7 WSW 0.0 0.0
04:35 17.9 89.0 2.8 WSW 3.3 WSW 0.0 0.0
04:40 17.8 89.5 3.0 W 3.6 W 0.0 0.0
04:45 17.8 89.6 2.8 WSW 3.2 WSW 0.0 0.0
04:50 17.9 89.8 2.9 W 3.5 W 0.0 0.0
04:55 17.9 89.7 2.9 WSW 3.6 WSW 0.0 0.0
05:00 18.0 89.6 2.7 W 3.3 W 0.0 0.0
05:05 17.9 89.5 2.7 W 3.3 WSW 0.0 0.0
05:10 17.9 89.5 3.0 W 4.0 WNW 0.0 0.7
05:15 18.0 89.5 3.0 W 4.2 WNW 0.0 2.0
05:20 18.0 89.2 2.7 W 4.0 W 0.0 3.6
05:25 17.9 88.9 2.6 WSW 3.2 WSW 0.0 6.3
05:30 17.9 89.3 2.6 W 3.4 W 0.0 10.4
05:35 17.9 89.5 3.0 WSW 3.5 WSW 0.0 16.5
05:40 18.1 89.9 2.4 SW 3.5 WSW 0.0 38.0
05:45 18.2 89.8 2.0 SW 4.2 WSW 0.0 47.3
05:50 18.5 89.2 1.5 WSW 2.7 SW 0.0 61.4
05:55 18.8 88.3 1.7 WNW 2.4 WNW 0.0 76.8
06:00 19.2 87.6 0.8 NNW 2.0 WNW 0.0 91.6
06:05 19.8 85.5 0.5 ESE 1.3 ENE 0.0 106.3
06:10 20.5 81.0 0.5 NNE 1.5 NNE 0.0 122.5
06:15 20.9 78.1 1.0 SE 1.8 ESE 0.0 139.4
06:20 21.3 76.9 1.6 E 3.9 E 0.0 155.5
06:25 21.3 75.8 2.0 SE 4.4 SE 0.0 173.0
06:30 21.3 76.0 2.2 ESE 4.4 ESE 0.0 190.2
06:35 21.6 74.3 2.0 ESE 4.7 SE 0.0 207.9
06:40 21.5 74.3 2.9 ESE 6.1 E 0.0 223.6
06:45 21.7 73.6 3.2 ESE 6.7 ESE 0.0 245.0
06:50 21.9 72.5 2.9 ESE 5.8 ESE 0.0 265.5
06:55 22.3 71.2 2.4 NE 5.4 ENE 0.0 283.8
07:00 22.4 70.1 3.0 SE 5.5 SE 0.0 301.8
07:05 22.2 71.0 3.9 SE 7.8 ESE 0.0 318.9
07:10 22.1 71.1 3.3 ESE 7.8 SE 0.0 337.4
07:15 22.2 70.5 3.5 SE 7.3 SSE 0.0 355.5
07:20 22.6 69.2 3.6 ESE 6.9 ESE 0.0 376.1
07:25 22.7 69.3 3.4 ESE 6.4 SE 0.0 396.7
07:30 22.7 68.5 4.8 ENE 9.1 NNE 0.0 407.0
07:35 22.7 68.7 4.1 NNE 8.0 N 0.0 421.1
07:40 23.0 67.7 3.1 ENE 7.1 NE 0.0 436.9
07:45 23.2 66.8 3.5 ESE 6.4 E 0.0 454.7
07:50 23.0 66.5 3.6 SE 9.0 ESE 0.0 473.5
07:55 23.2 66.0 3.8 ESE 8.6 E 0.0 490.1
08:00 23.2 65.9 3.6 SE 8.2 ESE 0.0 506.5
08:05 23.7 65.1 4.1 SE 7.0 NE 0.0 525.1
08:10 24.2 64.0 4.2 SSE 9.0 SSE 0.0 542.5
08:15 24.2 63.9 4.0 SE 8.4 S 0.0 557.4
08:20 24.2 64.0 4.5 SSE 9.4 E 0.0 572.5
08:25 24.3 63.1 3.8 SSE 8.0 S 0.0 585.9
08:30 24.0 64.2 3.4 SE 9.2 SE 0.0 598.6
08:35 24.4 63.2 4.5 ESE 10.8 ENE 0.0 616.0
08:40 24.5 63.1 4.9 SE 9.4 SSE 0.0 631.0
08:45 24.3 63.6 3.6 E 7.8 ESE 0.0 642.0
08:50 24.5 63.1 4.9 ESE 16.1 ESE 0.0 659.6
08:55 24.8 62.1 4.7 SE 10.4 ESE 0.0 674.3
09:00 24.9 62.0 4.5 SSE 9.6 SSW 0.0 687.7
09:05 24.9 62.1 5.9 SE 14.3 SE 0.0 704.0
09:10 25.0 61.3 6.0 ESE 12.9 E 0.0 717.3
09:15 25.3 60.8 5.3 SE 10.9 ESE 0.0 726.8
09:20 25.6 60.0 5.3 SSE 10.6 SSW 0.0 747.4
09:25 26.0 58.9 5.0 SSE 12.7 SSE 0.0 773.8
09:30 25.9 58.9 5.8 SE 14.9 ESE 0.0 785.2
09:35 25.6 59.5 5.8 SE 12.1 ESE 0.0 811.0
09:40 25.7 59.0 6.5 ESE 15.5 E 0.0 777.4
09:45 25.6 59.1 5.0 SSE 13.9 SE 0.0 742.0
09:50 25.8 58.2 5.2 SE 11.3 ESE 0.0 841.0
09:55 26.0 57.8 5.2 SE 10.2 E 0.0 916.0
10:00 26.3 56.8 7.3 SE 20.5 SSE 0.0 881.0
10:05 26.1 56.9 7.1 SSE 15.4 SSE 0.0 879.0
Máxima 26.3 90.2 7.3 SE 20.5 SSE 0.0 916.0
Mínima 17.8 56.8
Total 0.0